createdAt,value
2022-12-06T00:00:02.477Z,3.82
2022-12-06T00:01:02.957Z,3.81
2022-12-06T00:02:03.468Z,3.83
2022-12-06T00:03:03.161Z,3.86
2022-12-06T00:04:03.043Z,3.89
2022-12-06T00:05:03.292Z,3.95
2022-12-06T00:06:03.206Z,3.98
2022-12-06T00:07:03.618Z,4.01
2022-12-06T00:08:03.617Z,4.01
2022-12-06T00:09:03.468Z,4.03
2022-12-06T00:10:03.644Z,4.08
2022-12-06T00:11:03.354Z,4.11
2022-12-06T00:12:02.870Z,4.11
2022-12-06T00:13:02.896Z,4.13
2022-12-06T00:14:02.831Z,4.13
2022-12-06T00:15:02.549Z,4.08
2022-12-06T00:16:02.432Z,4.06
2022-12-06T00:17:03.544Z,4.06
2022-12-06T00:18:03.346Z,4.06
2022-12-06T00:19:03.057Z,4.06
2022-12-06T00:20:03.346Z,4.05
2022-12-06T00:21:03.172Z,4.02
2022-12-06T00:22:03.600Z,4.01
2022-12-06T00:23:03.540Z,4.03
2022-12-06T00:24:03.270Z,4.01
2022-12-06T00:25:03.689Z,4.01
2022-12-06T00:26:03.573Z,4.04
2022-12-06T00:27:02.460Z,4.11
2022-12-06T00:28:02.899Z,4.14
2022-12-06T00:29:02.480Z,4.11
2022-12-06T00:30:02.898Z,4.11
2022-12-06T00:31:02.656Z,4.08
2022-12-06T00:32:02.972Z,4.03
2022-12-06T00:33:03.051Z,4.02
2022-12-06T00:34:02.599Z,4.00
2022-12-06T00:35:02.656Z,3.98
2022-12-06T00:36:02.832Z,3.98
2022-12-06T00:37:02.644Z,3.99
2022-12-06T00:38:02.621Z,4.00
2022-12-06T00:39:03.199Z,4.01
2022-12-06T00:40:03.226Z,3.96
2022-12-06T00:41:02.712Z,3.94
2022-12-06T00:42:02.254Z,3.93
2022-12-06T00:43:02.686Z,3.93
2022-12-06T00:44:02.548Z,3.98
2022-12-06T00:45:02.312Z,4.01
2022-12-06T00:46:02.841Z,3.99
2022-12-06T00:47:02.524Z,4.00
2022-12-06T00:48:03.082Z,3.97
2022-12-06T00:49:02.915Z,3.96
2022-12-06T00:50:02.673Z,3.93
2022-12-06T00:51:03.127Z,3.92
2022-12-06T00:52:02.990Z,3.88
2022-12-06T00:53:03.228Z,3.89
2022-12-06T00:54:03.011Z,3.92
2022-12-06T00:55:03.366Z,3.93
2022-12-06T00:56:03.108Z,3.97
2022-12-06T00:57:02.615Z,4.01
2022-12-06T00:58:03.001Z,4.00
2022-12-06T00:59:03.011Z,4.01
2022-12-06T01:00:02.966Z,4.07
2022-12-06T01:01:02.829Z,4.10
2022-12-06T01:02:02.922Z,4.10
2022-12-06T01:03:02.760Z,4.13
2022-12-06T01:04:02.957Z,4.15
2022-12-06T01:05:02.638Z,4.19
2022-12-06T01:06:02.865Z,4.19
2022-12-06T01:07:02.630Z,4.22
2022-12-06T01:08:03.148Z,4.22
2022-12-06T01:09:02.596Z,4.21
2022-12-06T01:10:03.094Z,4.22
2022-12-06T01:11:02.843Z,4.21
2022-12-06T01:12:03.377Z,4.14
2022-12-06T01:13:03.045Z,4.11
2022-12-06T01:14:02.804Z,4.11
2022-12-06T01:15:03.241Z,4.13
2022-12-06T01:16:02.982Z,4.12
2022-12-06T01:17:03.000Z,4.13
2022-12-06T01:18:02.712Z,4.14
2022-12-06T01:19:02.614Z,4.13
2022-12-06T01:20:02.720Z,4.19
2022-12-06T01:21:02.383Z,4.18
2022-12-06T01:22:02.806Z,4.16
2022-12-06T01:23:03.249Z,4.16
2022-12-06T01:24:02.918Z,4.14
2022-12-06T01:25:02.752Z,4.13
2022-12-06T01:26:03.209Z,4.10
2022-12-06T01:27:02.047Z,4.09
2022-12-06T01:28:01.876Z,4.11
2022-12-06T01:29:02.083Z,4.11
2022-12-06T01:30:02.414Z,4.12
2022-12-06T01:31:02.284Z,4.13
2022-12-06T01:32:02.222Z,4.15
2022-12-06T01:33:02.105Z,4.17
2022-12-06T01:34:01.904Z,4.17
2022-12-06T01:35:02.375Z,4.20
2022-12-06T01:36:02.157Z,4.21
2022-12-06T01:37:02.609Z,4.20
2022-12-06T01:38:06.115Z,4.19
2022-12-06T01:39:02.552Z,4.19
2022-12-06T01:40:03.032Z,4.17
2022-12-06T01:41:02.548Z,4.16
2022-12-06T01:42:02.289Z,4.14
2022-12-06T01:43:02.096Z,4.16
2022-12-06T01:44:01.885Z,4.19
2022-12-06T01:45:02.362Z,4.19
2022-12-06T01:46:01.958Z,4.20
2022-12-06T01:47:02.836Z,4.25
2022-12-06T01:48:02.612Z,4.27
2022-12-06T01:49:02.356Z,4.21
2022-12-06T01:50:03.109Z,4.17
2022-12-06T01:51:02.680Z,4.14
2022-12-06T01:52:02.553Z,4.15
2022-12-06T01:53:02.785Z,4.17
2022-12-06T01:54:02.611Z,4.19
2022-12-06T01:55:02.366Z,4.24
2022-12-06T01:56:02.811Z,4.28
2022-12-06T01:57:02.385Z,4.34
2022-12-06T01:58:01.899Z,4.37
2022-12-06T01:59:01.784Z,4.36
2022-12-06T02:00:02.537Z,4.37
2022-12-06T02:01:02.314Z,4.37
2022-12-06T02:02:03.330Z,4.38
2022-12-06T02:03:03.379Z,4.39
2022-12-06T02:04:03.774Z,4.36
2022-12-06T02:05:03.406Z,4.33
2022-12-06T02:06:03.570Z,4.33
2022-12-06T02:07:02.909Z,4.38
2022-12-06T02:08:02.809Z,4.42
2022-12-06T02:09:03.225Z,4.49
2022-12-06T02:10:02.859Z,4.54
2022-12-06T02:11:02.668Z,4.56
2022-12-06T02:12:03.104Z,4.60
2022-12-06T02:13:02.831Z,4.61
2022-12-06T02:14:03.057Z,4.64
2022-12-06T02:15:03.172Z,4.60
2022-12-06T02:16:02.818Z,4.53
2022-12-06T02:17:03.351Z,4.48
2022-12-06T02:18:03.197Z,4.48
2022-12-06T02:19:02.983Z,4.49
2022-12-06T02:20:03.607Z,4.51
2022-12-06T02:21:03.246Z,4.50
2022-12-06T02:22:02.834Z,4.53
2022-12-06T02:23:02.847Z,4.55
2022-12-06T02:24:02.880Z,4.57
2022-12-06T02:25:02.654Z,4.57
2022-12-06T02:26:02.402Z,4.61
2022-12-06T02:27:03.112Z,4.61
2022-12-06T02:28:02.647Z,4.61
2022-12-06T02:29:03.079Z,4.62
2022-12-06T02:30:02.693Z,4.59
2022-12-06T02:31:02.622Z,4.57
2022-12-06T02:32:02.800Z,4.56
2022-12-06T02:33:03.131Z,4.57
2022-12-06T02:34:03.380Z,4.58
2022-12-06T02:35:03.035Z,4.57
2022-12-06T02:36:03.190Z,4.53
2022-12-06T02:37:02.702Z,4.51
2022-12-06T02:38:02.467Z,4.49
2022-12-06T02:39:02.523Z,4.48
2022-12-06T02:40:02.990Z,4.48
2022-12-06T02:41:02.674Z,4.46
2022-12-06T02:42:03.162Z,4.43
2022-12-06T02:43:02.943Z,4.40
2022-12-06T02:44:03.122Z,4.41
2022-12-06T02:45:02.963Z,4.45
2022-12-06T02:46:02.774Z,4.48
2022-12-06T02:47:03.255Z,4.54
2022-12-06T02:48:03.146Z,4.55
2022-12-06T02:49:03.355Z,4.55
2022-12-06T02:50:03.165Z,4.61
2022-12-06T02:51:03.435Z,4.65
2022-12-06T02:52:02.294Z,4.69
2022-12-06T02:53:02.801Z,4.66
2022-12-06T02:54:02.474Z,4.64
2022-12-06T02:55:02.852Z,4.63
2022-12-06T02:56:02.807Z,4.68
2022-12-06T02:57:02.983Z,4.71
2022-12-06T02:58:02.639Z,4.72
2022-12-06T02:59:03.100Z,4.66
2022-12-06T03:00:03.004Z,4.66
2022-12-06T03:01:02.816Z,4.67
2022-12-06T03:02:03.477Z,4.61
2022-12-06T03:03:03.505Z,4.57
2022-12-06T03:04:03.222Z,4.61
2022-12-06T03:05:03.252Z,4.65
2022-12-06T03:06:02.933Z,4.72
2022-12-06T03:07:02.591Z,4.75
2022-12-06T03:08:02.582Z,4.72
2022-12-06T03:09:02.426Z,4.68
2022-12-06T03:10:02.557Z,4.68
2022-12-06T03:11:02.242Z,4.72
2022-12-06T03:12:02.305Z,4.73
2022-12-06T03:13:02.057Z,4.69
2022-12-06T03:14:01.813Z,4.69
2022-12-06T03:15:02.041Z,4.74
2022-12-06T03:16:02.339Z,4.78
2022-12-06T03:17:02.599Z,4.79
2022-12-06T03:18:02.144Z,4.80
2022-12-06T03:19:02.607Z,4.74
2022-12-06T03:20:02.439Z,4.67
2022-12-06T03:21:02.266Z,4.68
2022-12-06T03:22:02.707Z,4.67
2022-12-06T03:23:02.149Z,4.63
2022-12-06T03:24:02.766Z,4.59
2022-12-06T03:25:02.284Z,4.54
2022-12-06T03:26:02.083Z,4.51
2022-12-06T03:27:02.942Z,4.50
2022-12-06T03:28:02.638Z,4.48
2022-12-06T03:29:02.861Z,4.46
2022-12-06T03:30:02.790Z,4.43
2022-12-06T03:31:03.119Z,4.43
2022-12-06T03:32:02.655Z,4.44
2022-12-06T03:33:02.154Z,4.49
2022-12-06T03:34:02.000Z,4.53
2022-12-06T03:35:02.436Z,4.56
2022-12-06T03:36:02.093Z,4.53
2022-12-06T03:37:03.247Z,4.48
2022-12-06T03:38:02.990Z,4.48
2022-12-06T03:39:02.757Z,4.48
2022-12-06T03:40:03.367Z,4.50
2022-12-06T03:41:02.722Z,4.52
2022-12-06T03:42:02.221Z,4.59
2022-12-06T03:43:02.645Z,4.57
2022-12-06T03:44:02.437Z,4.54
2022-12-06T03:45:02.848Z,4.53
2022-12-06T03:46:02.602Z,4.54
2022-12-06T03:47:02.608Z,4.54
2022-12-06T03:48:02.669Z,4.57
2022-12-06T03:49:03.111Z,4.64
2022-12-06T03:50:03.136Z,4.69
2022-12-06T03:51:02.730Z,4.68
2022-12-06T03:52:02.796Z,4.67
2022-12-06T03:53:02.173Z,4.68
2022-12-06T03:54:02.658Z,4.66
2022-12-06T03:55:02.102Z,4.68
2022-12-06T03:56:02.133Z,4.65
2022-12-06T03:57:02.584Z,4.63
2022-12-06T03:58:03.030Z,4.61
2022-12-06T03:59:02.765Z,4.61
2022-12-06T04:00:02.873Z,4.58
2022-12-06T04:01:02.748Z,4.62
2022-12-06T04:02:02.366Z,4.65
2022-12-06T04:03:02.247Z,4.67
2022-12-06T04:04:02.749Z,4.67
2022-12-06T04:05:02.256Z,4.67
2022-12-06T04:06:02.702Z,4.67
2022-12-06T04:07:01.942Z,4.67
2022-12-06T04:08:02.424Z,4.71
2022-12-06T04:09:01.908Z,4.74
2022-12-06T04:10:02.135Z,4.78
2022-12-06T04:11:01.805Z,4.72
2022-12-06T04:12:02.188Z,4.71
2022-12-06T04:13:02.592Z,4.75
2022-12-06T04:14:02.130Z,4.71
2022-12-06T04:15:01.924Z,4.72
2022-12-06T04:16:02.504Z,4.72
2022-12-06T04:17:02.199Z,4.70
2022-12-06T04:18:02.018Z,4.70
2022-12-06T04:19:02.242Z,4.70
2022-12-06T04:20:02.776Z,4.73
2022-12-06T04:21:01.951Z,4.73
2022-12-06T04:22:02.555Z,4.71
2022-12-06T04:23:02.690Z,4.71
2022-12-06T04:24:02.955Z,4.69
2022-12-06T04:25:02.311Z,4.67
2022-12-06T04:26:02.650Z,4.65
2022-12-06T04:27:02.107Z,4.65
2022-12-06T04:28:02.471Z,4.66
2022-12-06T04:29:01.868Z,4.69
2022-12-06T04:30:02.539Z,4.70
2022-12-06T04:31:02.160Z,4.68
2022-12-06T04:32:03.040Z,4.68
2022-12-06T04:33:02.869Z,4.70
2022-12-06T04:34:02.811Z,4.73
2022-12-06T04:35:02.679Z,4.76
2022-12-06T04:36:02.847Z,4.76
2022-12-06T04:37:02.112Z,4.74
2022-12-06T04:38:02.130Z,4.74
2022-12-06T04:39:02.300Z,4.72
2022-12-06T04:40:02.597Z,4.73
2022-12-06T04:41:02.286Z,4.79
2022-12-06T04:42:02.516Z,4.80
2022-12-06T04:43:02.246Z,4.81
2022-12-06T04:44:02.229Z,4.80
2022-12-06T04:45:02.734Z,4.78
2022-12-06T04:46:02.162Z,4.75
2022-12-06T04:47:02.283Z,4.75
2022-12-06T04:48:02.026Z,4.71
2022-12-06T04:49:01.937Z,4.72
2022-12-06T04:50:01.916Z,4.72
2022-12-06T04:51:02.024Z,4.74
2022-12-06T04:52:02.264Z,4.76
2022-12-06T04:53:01.918Z,4.75
2022-12-06T04:54:02.282Z,4.76
2022-12-06T04:55:02.216Z,4.71
2022-12-06T04:56:02.073Z,4.69
2022-12-06T04:57:02.719Z,4.70
2022-12-06T04:58:02.198Z,4.71
2022-12-06T04:59:02.645Z,4.73
2022-12-06T05:00:02.861Z,4.75
2022-12-06T05:01:02.657Z,4.75
2022-12-06T05:02:02.666Z,4.79
2022-12-06T05:03:02.435Z,4.81
2022-12-06T05:04:02.267Z,4.84
2022-12-06T05:05:02.555Z,4.84
2022-12-06T05:06:02.470Z,4.84
2022-12-06T05:07:02.485Z,4.84
2022-12-06T05:08:02.988Z,4.87
2022-12-06T05:09:02.479Z,4.93
2022-12-06T05:10:02.969Z,4.95
2022-12-06T05:11:02.496Z,4.93
2022-12-06T05:12:02.646Z,4.98
2022-12-06T05:13:03.190Z,5.02
2022-12-06T05:14:02.665Z,5.00
2022-12-06T05:15:02.763Z,4.98
2022-12-06T05:16:02.633Z,5.00
2022-12-06T05:17:02.050Z,4.99
2022-12-06T05:18:01.960Z,4.99
2022-12-06T05:19:02.082Z,4.97
2022-12-06T05:20:02.145Z,4.98
2022-12-06T05:21:02.435Z,4.98
2022-12-06T05:22:02.159Z,4.99
2022-12-06T05:23:01.926Z,4.97
2022-12-06T05:24:02.174Z,4.96
2022-12-06T05:25:01.739Z,4.97
2022-12-06T05:26:02.198Z,4.97
2022-12-06T05:27:02.774Z,4.93
2022-12-06T05:28:02.561Z,4.90
2022-12-06T05:29:02.272Z,4.87
2022-12-06T05:30:02.801Z,4.89
2022-12-06T05:31:02.641Z,4.91
2022-12-06T05:32:03.002Z,4.97
2022-12-06T05:33:03.014Z,5.03
2022-12-06T05:34:03.112Z,5.07
2022-12-06T05:35:02.499Z,5.09
2022-12-06T05:36:02.916Z,5.13
2022-12-06T05:37:02.385Z,5.14
2022-12-06T05:38:02.212Z,5.17
2022-12-06T05:39:02.042Z,5.18
2022-12-06T05:40:02.643Z,5.17
2022-12-06T05:41:02.468Z,5.18
2022-12-06T05:42:02.652Z,5.17
2022-12-06T05:43:02.430Z,5.15
2022-12-06T05:44:02.156Z,5.13
2022-12-06T05:45:02.601Z,5.14
2022-12-06T05:46:02.304Z,5.15
2022-12-06T05:47:02.475Z,5.16
2022-12-06T05:48:02.335Z,5.13
2022-12-06T05:49:02.272Z,5.15
2022-12-06T05:50:02.962Z,5.15
2022-12-06T05:51:02.748Z,5.14
2022-12-06T05:52:04.152Z,5.13
2022-12-06T05:53:01.691Z,5.12
2022-12-06T05:54:01.941Z,5.13
2022-12-06T05:55:01.693Z,5.17
2022-12-06T05:56:02.122Z,5.17
2022-12-06T05:57:02.050Z,5.14
2022-12-06T05:58:02.515Z,5.08
2022-12-06T05:59:02.329Z,5.03
2022-12-06T06:00:02.467Z,5.03
2022-12-06T06:01:02.242Z,5.03
2022-12-06T06:02:03.141Z,5.03
2022-12-06T06:03:02.889Z,5.00
2022-12-06T06:04:02.441Z,4.98
2022-12-06T06:05:02.568Z,4.97
2022-12-06T06:06:03.008Z,4.97
2022-12-06T06:07:03.273Z,4.98
2022-12-06T06:08:02.891Z,4.98
2022-12-06T06:09:02.982Z,4.98
2022-12-06T06:10:03.407Z,5.01
2022-12-06T06:11:03.251Z,5.05
2022-12-06T06:12:06.924Z,5.06
2022-12-06T06:13:03.498Z,5.05
2022-12-06T06:14:03.684Z,5.01
2022-12-06T06:15:03.462Z,4.99
2022-12-06T06:16:03.272Z,4.97
2022-12-06T06:17:02.843Z,4.99
2022-12-06T06:18:02.429Z,4.99
2022-12-06T06:19:02.724Z,5.02
2022-12-06T06:20:02.867Z,5.03
2022-12-06T06:21:02.510Z,5.04
2022-12-06T06:22:03.653Z,5.01
2022-12-06T06:23:03.448Z,4.97
2022-12-06T06:24:03.251Z,4.93
2022-12-06T06:25:03.825Z,4.95
2022-12-06T06:26:03.444Z,4.92
2022-12-06T06:27:03.203Z,4.90
2022-12-06T06:28:03.400Z,4.90
2022-12-06T06:29:03.651Z,4.89
2022-12-06T06:30:03.479Z,4.91
2022-12-06T06:31:03.550Z,4.91
2022-12-06T06:32:02.523Z,4.92
2022-12-06T06:33:03.025Z,4.99
2022-12-06T06:34:02.619Z,4.93
2022-12-06T06:35:02.592Z,4.89
2022-12-06T06:36:02.441Z,4.84
2022-12-06T06:37:03.607Z,4.84
2022-12-06T06:38:03.402Z,4.87
2022-12-06T06:39:03.231Z,4.90
2022-12-06T06:40:03.382Z,4.91
2022-12-06T06:41:03.588Z,4.96
2022-12-06T06:42:02.379Z,4.98
2022-12-06T06:43:02.970Z,5.04
2022-12-06T06:44:02.667Z,5.06
2022-12-06T06:45:04.172Z,5.09
2022-12-06T06:46:02.897Z,5.12
2022-12-06T06:47:02.893Z,5.15
2022-12-06T06:48:02.878Z,5.18
2022-12-06T06:49:02.658Z,5.21
2022-12-06T06:50:03.431Z,5.18
2022-12-06T06:51:03.177Z,5.17
2022-12-06T06:52:02.819Z,5.15
2022-12-06T06:53:03.269Z,5.13
2022-12-06T06:54:03.217Z,5.18
2022-12-06T06:55:02.989Z,5.16
2022-12-06T06:56:02.803Z,5.13
2022-12-06T06:57:03.010Z,5.11
2022-12-06T06:58:02.993Z,5.10
2022-12-06T06:59:03.557Z,5.08
2022-12-06T07:00:03.427Z,5.12
2022-12-06T07:01:03.630Z,5.18
2022-12-06T07:02:03.285Z,5.22
2022-12-06T07:03:03.104Z,5.18
2022-12-06T07:04:03.338Z,5.15
2022-12-06T07:05:03.268Z,5.14
2022-12-06T07:06:03.089Z,5.14
2022-12-06T07:07:03.061Z,5.13
2022-12-06T07:08:03.622Z,5.13
2022-12-06T07:09:03.500Z,5.18
2022-12-06T07:10:03.613Z,5.25
2022-12-06T07:11:03.558Z,5.22
2022-12-06T07:12:03.280Z,5.17
2022-12-06T07:13:03.586Z,5.16
2022-12-06T07:14:03.511Z,5.16
2022-12-06T07:15:03.707Z,5.16
2022-12-06T07:16:03.436Z,5.19
2022-12-06T07:17:02.939Z,5.17
2022-12-06T07:18:02.875Z,5.15
2022-12-06T07:19:08.702Z,5.15
2022-12-06T07:20:03.528Z,5.15
2022-12-06T07:21:03.246Z,5.13
2022-12-06T07:22:03.120Z,5.16
2022-12-06T07:23:03.447Z,5.21
2022-12-06T07:24:03.400Z,5.25
2022-12-06T07:25:03.134Z,5.23
2022-12-06T07:26:03.127Z,5.24
2022-12-06T07:27:02.751Z,5.20
2022-12-06T07:28:02.660Z,5.20
2022-12-06T07:29:02.815Z,5.25
2022-12-06T07:30:03.321Z,5.28
2022-12-06T07:31:03.048Z,5.27
2022-12-06T07:32:03.164Z,5.25
2022-12-06T07:33:03.503Z,5.24
2022-12-06T07:34:02.908Z,5.25
2022-12-06T07:35:02.991Z,5.25
2022-12-06T07:36:12.032Z,5.25
2022-12-06T07:37:03.425Z,5.26
2022-12-06T07:38:03.237Z,5.24
2022-12-06T07:39:03.140Z,5.26
2022-12-06T07:40:03.326Z,5.25
2022-12-06T07:41:04.719Z,5.30
2022-12-06T07:42:03.227Z,5.34
2022-12-06T07:43:03.071Z,5.36
2022-12-06T07:44:03.226Z,5.36
2022-12-06T07:45:03.384Z,5.35
2022-12-06T07:46:03.225Z,5.35
2022-12-06T07:47:02.844Z,5.34
2022-12-06T07:48:02.803Z,5.40
2022-12-06T07:49:02.736Z,5.44
2022-12-06T07:50:02.833Z,5.44
2022-12-06T07:51:02.894Z,5.41
2022-12-06T07:52:03.020Z,5.45
2022-12-06T07:53:02.998Z,5.42
2022-12-06T07:54:02.879Z,5.42
2022-12-06T07:55:03.378Z,5.44
2022-12-06T07:56:03.372Z,5.47
2022-12-06T07:57:02.646Z,5.46
2022-12-06T07:58:02.528Z,5.41
2022-12-06T07:59:02.441Z,5.35
2022-12-06T08:00:03.127Z,5.32
2022-12-06T08:01:02.697Z,5.32
2022-12-06T08:02:02.089Z,5.28
2022-12-06T08:03:01.964Z,5.23
2022-12-06T08:04:02.669Z,5.19
2022-12-06T08:05:02.408Z,5.21
2022-12-06T08:06:02.324Z,5.29
2022-12-06T08:07:02.587Z,5.37
2022-12-06T08:08:02.364Z,5.37
2022-12-06T08:09:02.260Z,5.34
2022-12-06T08:10:02.814Z,5.33
2022-12-06T08:11:02.514Z,5.37
2022-12-06T08:12:03.154Z,5.39
2022-12-06T08:13:02.856Z,5.37
2022-12-06T08:14:02.647Z,5.38
2022-12-06T08:15:02.560Z,5.39
2022-12-06T08:16:03.129Z,5.39
2022-12-06T08:17:03.332Z,5.37
2022-12-06T08:18:02.877Z,5.38
2022-12-06T08:19:02.763Z,5.37
2022-12-06T08:20:02.974Z,5.35
2022-12-06T08:21:02.735Z,5.33
2022-12-06T08:22:02.169Z,5.37
2022-12-06T08:23:01.913Z,5.40
2022-12-06T08:24:02.169Z,5.42
2022-12-06T08:25:01.718Z,5.45
2022-12-06T08:26:02.346Z,5.45
2022-12-06T08:27:02.578Z,5.48
2022-12-06T08:28:02.354Z,5.47
2022-12-06T08:29:02.261Z,5.46
2022-12-06T08:30:02.967Z,5.45
2022-12-06T08:31:03.431Z,5.47
2022-12-06T08:32:02.785Z,5.48
2022-12-06T08:33:02.584Z,5.47
2022-12-06T08:34:02.942Z,5.43
2022-12-06T08:35:02.627Z,5.42
2022-12-06T08:36:02.593Z,5.45
2022-12-06T08:37:03.685Z,5.51
2022-12-06T08:38:02.084Z,5.49
2022-12-06T08:40:02.651Z,5.49
2022-12-06T08:41:02.126Z,5.50
2022-12-06T08:42:02.694Z,5.48
2022-12-06T08:43:02.572Z,5.48
2022-12-06T08:44:02.413Z,5.49
2022-12-06T08:45:02.848Z,5.52
2022-12-06T08:46:02.322Z,5.50
2022-12-06T08:47:02.244Z,5.48
2022-12-06T08:48:02.180Z,5.47
2022-12-06T08:49:01.804Z,5.47
2022-12-06T08:50:01.987Z,5.46
2022-12-06T08:51:01.752Z,5.45
2022-12-06T08:52:02.311Z,5.47
2022-12-06T08:53:02.207Z,5.48
2022-12-06T08:54:02.103Z,5.49
2022-12-06T08:55:01.921Z,5.46
2022-12-06T08:56:02.998Z,5.42
2022-12-06T08:57:02.741Z,5.43
2022-12-06T08:58:02.661Z,5.44
2022-12-06T08:59:02.465Z,5.48
2022-12-06T09:00:02.702Z,5.49
2022-12-06T09:01:02.721Z,5.49
2022-12-06T09:02:01.944Z,5.49
2022-12-06T09:03:02.068Z,5.51
2022-12-06T09:04:02.040Z,5.56
2022-12-06T09:05:02.065Z,5.59
2022-12-06T09:06:01.775Z,5.63
2022-12-06T09:07:03.218Z,5.65
2022-12-06T09:08:02.356Z,5.66
2022-12-06T09:09:01.827Z,5.65
2022-12-06T09:10:02.628Z,5.67
2022-12-06T09:11:02.089Z,5.73
2022-12-06T09:12:01.921Z,5.74
2022-12-06T09:13:02.434Z,5.77
2022-12-06T09:14:02.444Z,5.80
2022-12-06T09:15:02.088Z,5.75
2022-12-06T09:16:02.552Z,5.74
2022-12-06T09:17:03.113Z,5.76
2022-12-06T09:18:02.761Z,5.80
2022-12-06T09:19:02.562Z,5.78
2022-12-06T09:20:06.109Z,5.78
2022-12-06T09:21:02.827Z,5.81
2022-12-06T09:22:03.099Z,5.86
2022-12-06T09:23:02.555Z,5.89
2022-12-06T09:24:03.123Z,5.89
2022-12-06T09:25:02.834Z,5.87
2022-12-06T09:26:02.831Z,5.89
2022-12-06T09:27:02.463Z,5.91
2022-12-06T09:28:01.810Z,5.96
2022-12-06T09:29:02.116Z,5.98
2022-12-06T09:30:02.430Z,5.98
2022-12-06T09:31:02.293Z,6.01
2022-12-06T09:32:02.739Z,6.01
2022-12-06T09:33:02.315Z,5.99
2022-12-06T09:34:02.524Z,6.01
2022-12-06T09:35:02.753Z,5.99
2022-12-06T09:36:02.284Z,6.00
2022-12-06T09:37:01.801Z,6.03
2022-12-06T09:38:02.143Z,6.03
2022-12-06T09:39:02.073Z,6.02
2022-12-06T09:40:02.608Z,6.00
2022-12-06T09:41:02.432Z,6.00
2022-12-06T09:42:01.908Z,6.04
2022-12-06T09:43:02.219Z,6.07
2022-12-06T09:44:02.467Z,6.07
2022-12-06T09:45:02.224Z,6.09
2022-12-06T09:46:02.103Z,6.08
2022-12-06T09:47:02.049Z,6.11
2022-12-06T09:48:02.299Z,6.14
2022-12-06T09:49:02.423Z,6.13
2022-12-06T09:50:02.909Z,6.14
2022-12-06T09:51:02.680Z,6.11
2022-12-06T09:52:02.647Z,6.11
2022-12-06T09:53:02.320Z,6.10
2022-12-06T09:54:02.862Z,6.09
2022-12-06T09:55:02.857Z,6.06
2022-12-06T09:56:02.313Z,6.05
2022-12-06T09:57:02.346Z,6.07
2022-12-06T09:58:01.867Z,6.09
2022-12-06T09:59:02.017Z,6.10
2022-12-06T10:00:02.164Z,6.11
2022-12-06T10:01:01.904Z,6.07
2022-12-06T10:02:03.387Z,6.07
2022-12-06T10:03:03.468Z,6.04
2022-12-06T10:04:02.889Z,6.04
2022-12-06T10:05:03.501Z,6.03
2022-12-06T10:06:03.316Z,6.06
2022-12-06T10:07:03.472Z,6.07
2022-12-06T10:08:03.584Z,6.04
2022-12-06T10:09:03.228Z,6.04
2022-12-06T10:10:03.583Z,6.06
2022-12-06T10:11:08.563Z,6.12
2022-12-06T10:12:02.450Z,6.15
2022-12-06T10:13:02.687Z,6.18
2022-12-06T10:14:02.488Z,6.21
2022-12-06T10:15:02.514Z,6.21
2022-12-06T10:16:02.631Z,6.23
2022-12-06T10:17:03.015Z,6.24
2022-12-06T10:18:03.227Z,6.22
2022-12-06T10:19:03.087Z,6.17
2022-12-06T10:20:02.789Z,6.14
2022-12-06T10:21:03.055Z,6.18
2022-12-06T10:22:03.558Z,6.21
2022-12-06T10:23:03.079Z,6.23
2022-12-06T10:24:03.298Z,6.28
2022-12-06T10:25:03.152Z,6.27
2022-12-06T10:26:03.269Z,6.25
2022-12-06T10:27:02.567Z,6.23
2022-12-06T10:28:02.773Z,6.21
2022-12-06T10:29:02.749Z,6.22
2022-12-06T10:30:03.009Z,6.21
2022-12-06T10:31:02.624Z,6.23
2022-12-06T10:32:03.058Z,6.29
2022-12-06T10:33:03.304Z,6.29
2022-12-06T10:34:03.154Z,6.28
2022-12-06T10:35:03.586Z,6.30
2022-12-06T10:36:02.703Z,6.33
2022-12-06T10:37:02.742Z,6.35
2022-12-06T10:38:02.870Z,6.38
2022-12-06T10:39:02.751Z,6.40
2022-12-06T10:40:03.237Z,6.40
2022-12-06T10:41:02.557Z,6.35
2022-12-06T10:42:03.120Z,6.31
2022-12-06T10:43:03.111Z,6.29
2022-12-06T10:44:03.456Z,6.33
2022-12-06T10:45:03.418Z,6.32
2022-12-06T10:46:08.731Z,6.25
2022-12-06T10:47:02.873Z,6.22
2022-12-06T10:48:02.900Z,6.23
2022-12-06T10:49:02.631Z,6.23
2022-12-06T10:50:02.992Z,6.24
2022-12-06T10:51:03.050Z,6.25
2022-12-06T10:52:02.484Z,6.29
2022-12-06T10:53:02.499Z,6.27
2022-12-06T10:54:02.350Z,6.25
2022-12-06T10:55:02.561Z,6.27
2022-12-06T10:56:02.487Z,6.28
2022-12-06T10:57:02.744Z,6.28
2022-12-06T10:58:02.507Z,6.33
2022-12-06T10:59:02.713Z,6.37
2022-12-06T11:00:04.013Z,6.35
2022-12-06T11:01:02.601Z,6.35
2022-12-06T11:02:01.871Z,6.37
2022-12-06T11:03:01.656Z,6.32
2022-12-06T11:04:02.056Z,6.28
2022-12-06T11:05:02.053Z,6.26
2022-12-06T11:06:02.020Z,6.27
2022-12-06T11:07:02.208Z,6.25
2022-12-06T11:08:02.152Z,6.26
2022-12-06T11:09:01.930Z,6.33
2022-12-06T11:10:02.199Z,6.41
2022-12-06T11:11:02.373Z,6.45
2022-12-06T11:12:02.140Z,6.51
2022-12-06T11:13:02.236Z,6.48
2022-12-06T11:14:02.178Z,6.42
2022-12-06T11:15:02.264Z,6.42
2022-12-06T11:16:02.889Z,6.41
2022-12-06T11:17:02.619Z,6.42
2022-12-06T11:18:02.866Z,6.42
2022-12-06T11:19:02.480Z,6.43
2022-12-06T11:20:02.986Z,6.44
2022-12-06T11:21:02.306Z,6.50
2022-12-06T11:22:01.892Z,6.58
2022-12-06T11:23:01.520Z,6.57
2022-12-06T11:24:01.859Z,6.55
2022-12-06T11:25:01.750Z,6.54
2022-12-06T11:26:01.891Z,6.56
2022-12-06T11:27:02.517Z,6.57
2022-12-06T11:28:02.532Z,6.59
2022-12-06T11:29:02.596Z,6.57
2022-12-06T11:30:02.732Z,6.57
2022-12-06T11:31:02.726Z,6.57
2022-12-06T11:32:01.978Z,6.57
2022-12-06T11:33:01.761Z,6.54
2022-12-06T11:34:02.040Z,6.55
2022-12-06T11:35:01.768Z,6.53
2022-12-06T11:36:01.583Z,6.54
2022-12-06T11:37:02.377Z,6.56
2022-12-06T11:38:02.245Z,6.59
2022-12-06T11:39:02.254Z,6.63
2022-12-06T11:40:02.162Z,6.64
2022-12-06T11:41:02.349Z,6.64
2022-12-06T11:42:01.875Z,6.64
2022-12-06T11:43:01.962Z,6.67
2022-12-06T11:44:01.410Z,6.71
2022-12-06T11:45:01.737Z,6.68
2022-12-06T11:46:01.739Z,6.68
2022-12-06T11:47:02.724Z,6.63
2022-12-06T11:48:02.415Z,6.60
2022-12-06T11:49:02.248Z,6.59
2022-12-06T11:50:07.960Z,6.60
2022-12-06T11:51:02.558Z,6.61
2022-12-06T11:52:02.028Z,6.61
2022-12-06T11:53:01.681Z,6.61
2022-12-06T11:54:01.792Z,6.61
2022-12-06T11:55:01.838Z,6.62
2022-12-06T11:56:01.980Z,6.60
2022-12-06T11:57:02.583Z,6.55
2022-12-06T11:58:02.402Z,6.53
2022-12-06T11:59:02.475Z,6.50
2022-12-06T12:00:02.605Z,6.52
2022-12-06T12:01:02.656Z,6.54
2022-12-06T12:02:03.047Z,6.54
2022-12-06T12:03:03.022Z,6.53
2022-12-06T12:04:03.067Z,6.53
2022-12-06T12:05:03.067Z,6.53
2022-12-06T12:06:02.492Z,6.52
2022-12-06T12:07:03.367Z,6.53
2022-12-06T12:08:03.225Z,6.54
2022-12-06T12:09:03.081Z,6.47
2022-12-06T12:10:02.855Z,6.46
2022-12-06T12:11:03.215Z,6.46
2022-12-06T12:12:03.088Z,6.48
2022-12-06T12:13:02.843Z,6.51
2022-12-06T12:14:02.644Z,6.57
2022-12-06T12:15:02.832Z,6.64
2022-12-06T12:16:02.712Z,6.69
2022-12-06T12:17:02.238Z,6.75
2022-12-06T12:18:02.689Z,6.76
2022-12-06T12:19:02.594Z,6.79
2022-12-06T12:20:02.300Z,6.80
2022-12-06T12:21:02.573Z,6.84
2022-12-06T12:22:02.764Z,6.89
2022-12-06T12:23:02.819Z,6.93
2022-12-06T12:24:03.302Z,6.96
2022-12-06T12:25:19.798Z,6.93
2022-12-06T12:26:02.982Z,6.92
2022-12-06T12:27:02.930Z,6.92
2022-12-06T12:28:03.458Z,6.94
2022-12-06T12:29:02.941Z,6.98
2022-12-06T12:30:03.224Z,7.00
2022-12-06T12:31:03.346Z,7.06
2022-12-06T12:32:03.514Z,7.13
2022-12-06T12:33:02.778Z,7.16
2022-12-06T12:34:02.659Z,7.14
2022-12-06T12:35:03.132Z,7.11
2022-12-06T12:36:02.422Z,7.08
2022-12-06T12:37:02.687Z,7.10
2022-12-06T12:38:03.480Z,7.14
2022-12-06T12:39:03.256Z,7.14
2022-12-06T12:40:07.488Z,7.12
2022-12-06T12:41:03.351Z,7.10
2022-12-06T12:42:03.199Z,7.09
2022-12-06T12:43:02.590Z,7.15
2022-12-06T12:44:28.898Z,7.20
2022-12-06T12:45:03.016Z,7.22
2022-12-06T12:46:03.359Z,7.18
2022-12-06T12:47:02.698Z,7.16
2022-12-06T12:48:02.725Z,7.18
2022-12-06T12:49:02.652Z,7.20
2022-12-06T12:50:03.023Z,7.23
2022-12-06T12:51:02.751Z,7.17
2022-12-06T12:52:02.664Z,7.09
2022-12-06T12:53:03.110Z,7.04
2022-12-06T12:54:03.116Z,7.05
2022-12-06T12:55:03.483Z,7.10
2022-12-06T12:56:02.825Z,7.12
2022-12-06T12:57:03.046Z,7.09
2022-12-06T12:58:02.874Z,7.06
2022-12-06T12:59:03.406Z,7.06
2022-12-06T13:00:03.015Z,7.14
2022-12-06T13:01:02.775Z,7.17
2022-12-06T13:02:02.785Z,7.18
2022-12-06T13:03:02.491Z,7.18
2022-12-06T13:04:02.401Z,7.22
2022-12-06T13:05:31.242Z,7.24
2022-12-06T13:06:02.565Z,7.21
2022-12-06T13:07:02.473Z,7.19
2022-12-06T13:08:02.457Z,7.23
2022-12-06T13:09:01.793Z,7.29
2022-12-06T13:10:01.834Z,7.27
2022-12-06T13:11:01.810Z,7.19
2022-12-06T13:12:02.221Z,7.19
2022-12-06T13:13:02.767Z,7.13
2022-12-06T13:14:02.549Z,7.10
2022-12-06T13:15:03.036Z,7.14
2022-12-06T13:16:08.813Z,7.14
2022-12-06T13:17:02.617Z,7.10
2022-12-06T13:18:02.751Z,7.10
2022-12-06T13:19:03.328Z,7.16